sensor_id;sensor_type;location;lat;lon;timestamp;temperature;humidity
23305;DHT22;11821;51.456;8.844;2023-07-13T00:00:42;19.90;99.90
23305;DHT22;11821;51.456;8.844;2023-07-13T00:03:09;19.80;99.90
23305;DHT22;11821;51.456;8.844;2023-07-13T00:05:35;19.80;99.90
23305;DHT22;11821;51.456;8.844;2023-07-13T00:08:01;19.80;99.90
23305;DHT22;11821;51.456;8.844;2023-07-13T00:10:28;19.80;99.90
23305;DHT22;11821;51.456;8.844;2023-07-13T00:12:54;19.80;99.90
23305;DHT22;11821;51.456;8.844;2023-07-13T00:15:25;19.80;99.90
23305;DHT22;11821;51.456;8.844;2023-07-13T00:17:53;19.80;99.90
23305;DHT22;11821;51.456;8.844;2023-07-13T00:20:24;19.80;99.90
23305;DHT22;11821;51.456;8.844;2023-07-13T00:22:54;19.80;99.90
23305;DHT22;11821;51.456;8.844;2023-07-13T00:25:21;19.80;99.90
23305;DHT22;11821;51.456;8.844;2023-07-13T00:27:48;19.70;99.90
23305;DHT22;11821;51.456;8.844;2023-07-13T00:30:15;19.70;99.90
23305;DHT22;11821;51.456;8.844;2023-07-13T00:32:41;19.70;99.90
23305;DHT22;11821;51.456;8.844;2023-07-13T00:35:08;19.60;99.90
23305;DHT22;11821;51.456;8.844;2023-07-13T00:37:35;19.60;99.90
23305;DHT22;11821;51.456;8.844;2023-07-13T00:40:05;19.60;99.90
23305;DHT22;11821;51.456;8.844;2023-07-13T00:42:32;19.70;99.90
23305;DHT22;11821;51.456;8.844;2023-07-13T00:47:38;19.50;99.90
23305;DHT22;11821;51.456;8.844;2023-07-13T00:50:08;19.50;99.90
23305;DHT22;11821;51.456;8.844;2023-07-13T00:52:37;19.50;99.90
23305;DHT22;11821;51.456;8.844;2023-07-13T00:55:04;19.50;99.90
23305;DHT22;11821;51.456;8.844;2023-07-13T00:57:31;19.50;99.90
23305;DHT22;11821;51.456;8.844;2023-07-13T01:00:00;19.40;99.90
23305;DHT22;11821;51.456;8.844;2023-07-13T01:02:38;19.40;99.90
23305;DHT22;11821;51.456;8.844;2023-07-13T01:05:16;19.30;99.90
23305;DHT22;11821;51.456;8.844;2023-07-13T01:07:44;19.30;99.90
23305;DHT22;11821;51.456;8.844;2023-07-13T01:10:12;19.20;99.90
23305;DHT22;11821;51.456;8.844;2023-07-13T01:12:38;19.20;99.90
23305;DHT22;11821;51.456;8.844;2023-07-13T01:15:32;19.10;99.90
23305;DHT22;11821;51.456;8.844;2023-07-13T01:17:52;19.10;99.90
23305;DHT22;11821;51.456;8.844;2023-07-13T01:20:18;19.10;99.90
23305;DHT22;11821;51.456;8.844;2023-07-13T01:22:44;19.10;99.90
23305;DHT22;11821;51.456;8.844;2023-07-13T01:25:11;19.00;99.90
23305;DHT22;11821;51.456;8.844;2023-07-13T01:27:37;19.00;99.90
23305;DHT22;11821;51.456;8.844;2023-07-13T01:30:07;18.90;99.90
23305;DHT22;11821;51.456;8.844;2023-07-13T01:32:36;18.90;99.90
23305;DHT22;11821;51.456;8.844;2023-07-13T01:35:02;18.90;99.90
23305;DHT22;11821;51.456;8.844;2023-07-13T01:37:29;18.80;99.90
23305;DHT22;11821;51.456;8.844;2023-07-13T01:44:52;18.80;99.90
23305;DHT22;11821;51.456;8.844;2023-07-13T01:47:19;18.70;99.90
23305;DHT22;11821;51.456;8.844;2023-07-13T01:49:45;18.70;99.90
23305;DHT22;11821;51.456;8.844;2023-07-13T01:52:14;18.60;99.90
23305;DHT22;11821;51.456;8.844;2023-07-13T01:54:40;18.60;99.90
23305;DHT22;11821;51.456;8.844;2023-07-13T01:57:06;18.60;99.90
23305;DHT22;11821;51.456;8.844;2023-07-13T01:59:33;18.50;99.90
23305;DHT22;11821;51.456;8.844;2023-07-13T02:01:59;18.50;99.90
23305;DHT22;11821;51.456;8.844;2023-07-13T02:04:26;18.40;99.90
23305;DHT22;11821;51.456;8.844;2023-07-13T02:06:52;18.40;99.90
23305;DHT22;11821;51.456;8.844;2023-07-13T02:09:19;18.40;99.90
23305;DHT22;11821;51.456;8.844;2023-07-13T02:11:45;18.30;99.90
23305;DHT22;11821;51.456;8.844;2023-07-13T02:14:11;18.30;99.90
23305;DHT22;11821;51.456;8.844;2023-07-13T02:16:38;18.30;99.90
23305;DHT22;11821;51.456;8.844;2023-07-13T02:19:04;18.20;99.90
23305;DHT22;11821;51.456;8.844;2023-07-13T02:21:32;18.20;99.90
23305;DHT22;11821;51.456;8.844;2023-07-13T02:23:58;18.20;99.90
23305;DHT22;11821;51.456;8.844;2023-07-13T02:26:26;18.20;99.90
23305;DHT22;11821;51.456;8.844;2023-07-13T02:28:53;18.10;99.90
23305;DHT22;11821;51.456;8.844;2023-07-13T02:31:20;18.00;99.90
23305;DHT22;11821;51.456;8.844;2023-07-13T02:33:46;18.10;99.90
23305;DHT22;11821;51.456;8.844;2023-07-13T02:36:12;18.00;99.90
23305;DHT22;11821;51.456;8.844;2023-07-13T02:38:40;18.00;99.90
23305;DHT22;11821;51.456;8.844;2023-07-13T02:41:07;17.90;99.90
23305;DHT22;11821;51.456;8.844;2023-07-13T02:43:35;17.90;99.90
23305;DHT22;11821;51.456;8.844;2023-07-13T02:46:01;17.90;99.90
23305;DHT22;11821;51.456;8.844;2023-07-13T02:48:33;17.80;99.90
23305;DHT22;11821;51.456;8.844;2023-07-13T02:51:00;17.70;99.90
23305;DHT22;11821;51.456;8.844;2023-07-13T02:53:26;17.70;99.90
23305;DHT22;11821;51.456;8.844;2023-07-13T02:55:53;17.70;99.90
23305;DHT22;11821;51.456;8.844;2023-07-13T03:02:07;17.70;99.90
23305;DHT22;11821;51.456;8.844;2023-07-13T03:04:35;17.60;99.90
23305;DHT22;11821;51.456;8.844;2023-07-13T03:07:03;17.60;99.90
23305;DHT22;11821;51.456;8.844;2023-07-13T03:09:35;17.60;99.90
23305;DHT22;11821;51.456;8.844;2023-07-13T03:12:04;17.60;99.90
23305;DHT22;11821;51.456;8.844;2023-07-13T03:14:32;17.60;99.90
23305;DHT22;11821;51.456;8.844;2023-07-13T03:17:00;17.50;99.90
23305;DHT22;11821;51.456;8.844;2023-07-13T03:19:30;17.50;99.90
23305;DHT22;11821;51.456;8.844;2023-07-13T03:21:57;17.40;99.90
23305;DHT22;11821;51.456;8.844;2023-07-13T03:24:23;17.40;99.90
23305;DHT22;11821;51.456;8.844;2023-07-13T03:26:52;17.30;99.90
23305;DHT22;11821;51.456;8.844;2023-07-13T03:29:19;17.30;99.90
23305;DHT22;11821;51.456;8.844;2023-07-13T03:31:45;17.20;99.90
23305;DHT22;11821;51.456;8.844;2023-07-13T03:34:12;17.10;99.90
23305;DHT22;11821;51.456;8.844;2023-07-13T03:36:38;17.10;99.90
23305;DHT22;11821;51.456;8.844;2023-07-13T03:39:09;17.00;99.90
23305;DHT22;11821;51.456;8.844;2023-07-13T03:41:55;16.90;99.90
23305;DHT22;11821;51.456;8.844;2023-07-13T03:44:22;16.90;99.90
23305;DHT22;11821;51.456;8.844;2023-07-13T03:46:53;16.80;99.90
23305;DHT22;11821;51.456;8.844;2023-07-13T03:49:20;16.90;99.90
23305;DHT22;11821;51.456;8.844;2023-07-13T03:51:46;16.80;99.90
23305;DHT22;11821;51.456;8.844;2023-07-13T03:54:13;16.80;99.90
23305;DHT22;11821;51.456;8.844;2023-07-13T03:56:39;16.80;99.90
23305;DHT22;11821;51.456;8.844;2023-07-13T03:59:07;16.80;99.90
23305;DHT22;11821;51.456;8.844;2023-07-13T04:01:34;16.80;99.90
23305;DHT22;11821;51.456;8.844;2023-07-13T04:04:00;16.80;99.90
23305;DHT22;11821;51.456;8.844;2023-07-13T04:06:29;16.80;99.90
23305;DHT22;11821;51.456;8.844;2023-07-13T04:08:58;16.80;99.90
23305;DHT22;11821;51.456;8.844;2023-07-13T04:11:29;16.90;99.90
23305;DHT22;11821;51.456;8.844;2023-07-13T04:13:55;16.90;99.90
23305;DHT22;11821;51.456;8.844;2023-07-13T04:16:22;16.90;99.90
23305;DHT22;11821;51.456;8.844;2023-07-13T04:18:49;16.90;99.90
23305;DHT22;11821;51.456;8.844;2023-07-13T04:21:15;16.90;99.90
23305;DHT22;11821;51.456;8.844;2023-07-13T04:23:42;16.90;99.90
23305;DHT22;11821;51.456;8.844;2023-07-13T04:26:09;17.10;99.90
23305;DHT22;11821;51.456;8.844;2023-07-13T04:28:35;17.00;99.90
23305;DHT22;11821;51.456;8.844;2023-07-13T04:31:01;17.10;99.90
23305;DHT22;11821;51.456;8.844;2023-07-13T04:33:28;17.20;99.90
23305;DHT22;11821;51.456;8.844;2023-07-13T04:35:55;17.30;99.90
23305;DHT22;11821;51.456;8.844;2023-07-13T04:38:27;17.30;99.90
23305;DHT22;11821;51.456;8.844;2023-07-13T04:41:00;17.40;99.90
23305;DHT22;11821;51.456;8.844;2023-07-13T04:43:27;17.40;99.90
23305;DHT22;11821;51.456;8.844;2023-07-13T04:45:54;17.50;99.90
23305;DHT22;11821;51.456;8.844;2023-07-13T04:48:21;17.60;99.90
23305;DHT22;11821;51.456;8.844;2023-07-13T04:50:47;17.70;99.90
23305;DHT22;11821;51.456;8.844;2023-07-13T04:53:14;17.80;99.90
23305;DHT22;11821;51.456;8.844;2023-07-13T04:55:40;17.80;99.90
23305;DHT22;11821;51.456;8.844;2023-07-13T04:58:07;17.90;99.90
23305;DHT22;11821;51.456;8.844;2023-07-13T05:00:33;17.90;99.90
23305;DHT22;11821;51.456;8.844;2023-07-13T05:03:00;18.00;99.90
23305;DHT22;11821;51.456;8.844;2023-07-13T05:05:26;18.00;99.90
23305;DHT22;11821;51.456;8.844;2023-07-13T05:07:54;18.10;99.90
23305;DHT22;11821;51.456;8.844;2023-07-13T05:10:20;18.10;99.90
23305;DHT22;11821;51.456;8.844;2023-07-13T05:12:47;18.20;99.90
23305;DHT22;11821;51.456;8.844;2023-07-13T05:15:14;18.40;99.90
23305;DHT22;11821;51.456;8.844;2023-07-13T05:17:40;18.40;99.90
23305;DHT22;11821;51.456;8.844;2023-07-13T05:20:08;18.40;99.90
23305;DHT22;11821;51.456;8.844;2023-07-13T05:22:34;18.50;99.90
23305;DHT22;11821;51.456;8.844;2023-07-13T05:25:04;18.60;99.90
23305;DHT22;11821;51.456;8.844;2023-07-13T05:27:30;18.70;99.90
23305;DHT22;11821;51.456;8.844;2023-07-13T05:29:57;18.70;99.90
23305;DHT22;11821;51.456;8.844;2023-07-13T05:32:23;18.90;99.90
23305;DHT22;11821;51.456;8.844;2023-07-13T05:34:49;18.80;99.90
23305;DHT22;11821;51.456;8.844;2023-07-13T05:37:16;18.90;99.90
23305;DHT22;11821;51.456;8.844;2023-07-13T05:39:42;19.10;99.90
23305;DHT22;11821;51.456;8.844;2023-07-13T05:42:08;19.20;99.90
23305;DHT22;11821;51.456;8.844;2023-07-13T05:44:34;19.30;99.90
23305;DHT22;11821;51.456;8.844;2023-07-13T05:47:01;19.40;99.90
23305;DHT22;11821;51.456;8.844;2023-07-13T05:49:28;19.40;99.90
23305;DHT22;11821;51.456;8.844;2023-07-13T05:51:56;19.50;99.90
23305;DHT22;11821;51.456;8.844;2023-07-13T05:54:23;19.50;99.90
23305;DHT22;11821;51.456;8.844;2023-07-13T05:56:49;19.50;99.90
23305;DHT22;11821;51.456;8.844;2023-07-13T05:59:15;19.50;99.90
23305;DHT22;11821;51.456;8.844;2023-07-13T06:01:43;19.50;99.90
23305;DHT22;11821;51.456;8.844;2023-07-13T06:04:09;19.60;99.90
23305;DHT22;11821;51.456;8.844;2023-07-13T06:06:35;19.60;99.90
23305;DHT22;11821;51.456;8.844;2023-07-13T06:18:49;19.70;99.90
23305;DHT22;11821;51.456;8.844;2023-07-13T06:21:20;20.30;99.90
23305;DHT22;11821;51.456;8.844;2023-07-13T06:23:48;20.30;99.90
23305;DHT22;11821;51.456;8.844;2023-07-13T06:26:15;20.40;99.90
23305;DHT22;11821;51.456;8.844;2023-07-13T06:28:41;20.50;99.90
23305;DHT22;11821;51.456;8.844;2023-07-13T06:31:09;20.60;99.90
23305;DHT22;11821;51.456;8.844;2023-07-13T06:33:36;20.70;99.90
23305;DHT22;11821;51.456;8.844;2023-07-13T06:48:19;20.80;99.90
23305;DHT22;11821;51.456;8.844;2023-07-13T06:50:47;22.20;99.90
23305;DHT22;11821;51.456;8.844;2023-07-13T06:53:14;22.20;99.90
23305;DHT22;11821;51.456;8.844;2023-07-13T06:55:40;22.40;99.90
23305;DHT22;11821;51.456;8.844;2023-07-13T06:58:06;22.50;99.90
23305;DHT22;11821;51.456;8.844;2023-07-13T07:00:33;22.60;99.90
23305;DHT22;11821;51.456;8.844;2023-07-13T07:02:59;22.70;99.50
23305;DHT22;11821;51.456;8.844;2023-07-13T07:05:25;22.80;98.90
23305;DHT22;11821;51.456;8.844;2023-07-13T07:07:54;22.80;99.50
23305;DHT22;11821;51.456;8.844;2023-07-13T07:10:21;22.60;98.90
23305;DHT22;11821;51.456;8.844;2023-07-13T07:12:47;22.80;98.90
23305;DHT22;11821;51.456;8.844;2023-07-13T07:15:14;22.80;98.80
23305;DHT22;11821;51.456;8.844;2023-07-13T07:17:40;22.80;99.00
23305;DHT22;11821;51.456;8.844;2023-07-13T07:20:07;22.80;98.70
23305;DHT22;11821;51.456;8.844;2023-07-13T07:22:33;22.90;98.60
23305;DHT22;11821;51.456;8.844;2023-07-13T07:25:00;22.90;98.70
23305;DHT22;11821;51.456;8.844;2023-07-13T07:27:26;23.00;98.70
23305;DHT22;11821;51.456;8.844;2023-07-13T07:29:53;23.10;98.60
23305;DHT22;11821;51.456;8.844;2023-07-13T07:32:20;23.10;98.20
23305;DHT22;11821;51.456;8.844;2023-07-13T07:34:46;23.30;98.30
23305;DHT22;11821;51.456;8.844;2023-07-13T07:37:14;23.50;98.00
23305;DHT22;11821;51.456;8.844;2023-07-13T07:39:40;23.50;97.80
23305;DHT22;11821;51.456;8.844;2023-07-13T07:42:07;23.70;97.70
23305;DHT22;11821;51.456;8.844;2023-07-13T07:44:33;23.90;97.90
23305;DHT22;11821;51.456;8.844;2023-07-13T07:47:01;23.90;97.60
23305;DHT22;11821;51.456;8.844;2023-07-13T07:49:28;23.90;97.40
23305;DHT22;11821;51.456;8.844;2023-07-13T07:51:54;23.90;97.90
23305;DHT22;11821;51.456;8.844;2023-07-13T07:54:20;24.00;97.20
23305;DHT22;11821;51.456;8.844;2023-07-13T07:56:46;24.20;97.20
23305;DHT22;11821;51.456;8.844;2023-07-13T07:59:13;24.30;97.20
23305;DHT22;11821;51.456;8.844;2023-07-13T08:01:39;24.20;96.70
23305;DHT22;11821;51.456;8.844;2023-07-13T08:04:05;24.20;96.70
23305;DHT22;11821;51.456;8.844;2023-07-13T08:06:32;24.10;97.20
23305;DHT22;11821;51.456;8.844;2023-07-13T08:09:00;24.30;96.80
23305;DHT22;11821;51.456;8.844;2023-07-13T08:11:27;24.30;96.30
23305;DHT22;11821;51.456;8.844;2023-07-13T08:13:53;24.20;96.60
23305;DHT22;11821;51.456;8.844;2023-07-13T08:16:20;24.50;96.00
23305;DHT22;11821;51.456;8.844;2023-07-13T08:18:46;24.70;96.10
23305;DHT22;11821;51.456;8.844;2023-07-13T08:21:12;24.80;95.80
23305;DHT22;11821;51.456;8.844;2023-07-13T08:23:39;25.00;95.50
23305;DHT22;11821;51.456;8.844;2023-07-13T08:26:05;24.90;95.30
23305;DHT22;11821;51.456;8.844;2023-07-13T08:28:34;24.90;95.80
23305;DHT22;11821;51.456;8.844;2023-07-13T08:31:04;25.10;96.10
23305;DHT22;11821;51.456;8.844;2023-07-13T08:33:31;25.40;95.30
23305;DHT22;11821;51.456;8.844;2023-07-13T08:35:57;25.80;95.30
23305;DHT22;11821;51.456;8.844;2023-07-13T08:38:23;26.00;94.90
23305;DHT22;11821;51.456;8.844;2023-07-13T08:40:54;26.10;94.70
23305;DHT22;11821;51.456;8.844;2023-07-13T08:43:41;26.00;94.30
23305;DHT22;11821;51.456;8.844;2023-07-13T08:58:36;26.00;94.30
23305;DHT22;11821;51.456;8.844;2023-07-13T09:03:46;26.30;94.10
23305;DHT22;11821;51.456;8.844;2023-07-13T09:06:16;26.40;94.20
23305;DHT22;11821;51.456;8.844;2023-07-13T09:08:46;26.40;93.60
23305;DHT22;11821;51.456;8.844;2023-07-13T09:16:23;26.80;93.50
23305;DHT22;11821;51.456;8.844;2023-07-13T09:18:52;27.10;93.20
23305;DHT22;11821;51.456;8.844;2023-07-13T09:21:31;27.30;93.00
23305;DHT22;11821;51.456;8.844;2023-07-13T09:24:27;27.30;93.40
23305;DHT22;11821;51.456;8.844;2023-07-13T09:26:55;27.30;93.20
23305;DHT22;11821;51.456;8.844;2023-07-13T09:47:22;28.10;92.50
23305;DHT22;11821;51.456;8.844;2023-07-13T09:49:55;28.20;91.60
23305;DHT22;11821;51.456;8.844;2023-07-13T09:52:22;28.10;92.30
23305;DHT22;11821;51.456;8.844;2023-07-13T09:54:50;28.40;91.90
23305;DHT22;11821;51.456;8.844;2023-07-13T09:57:18;28.60;91.70
23305;DHT22;11821;51.456;8.844;2023-07-13T09:59:51;28.20;91.90
23305;DHT22;11821;51.456;8.844;2023-07-13T10:02:31;27.90;91.90
23305;DHT22;11821;51.456;8.844;2023-07-13T10:05:11;27.70;92.00
23305;DHT22;11821;51.456;8.844;2023-07-13T10:07:42;27.50;92.20
23305;DHT22;11821;51.456;8.844;2023-07-13T10:10:21;27.60;91.90
23305;DHT22;11821;51.456;8.844;2023-07-13T10:12:49;28.00;92.30
23305;DHT22;11821;51.456;8.844;2023-07-13T10:15:24;28.20;91.00
23305;DHT22;11821;51.456;8.844;2023-07-13T10:17:53;27.80;91.20
23305;DHT22;11821;51.456;8.844;2023-07-13T10:20:21;27.60;91.40
23305;DHT22;11821;51.456;8.844;2023-07-13T10:22:53;27.80;91.30
23305;DHT22;11821;51.456;8.844;2023-07-13T10:25:26;27.70;91.00
23305;DHT22;11821;51.456;8.844;2023-07-13T10:27:58;27.70;91.60
23305;DHT22;11821;51.456;8.844;2023-07-13T10:30:28;27.50;91.40
23305;DHT22;11821;51.456;8.844;2023-07-13T10:33:02;27.80;91.70
23305;DHT22;11821;51.456;8.844;2023-07-13T10:35:30;27.70;91.40
23305;DHT22;11821;51.456;8.844;2023-07-13T10:40:40;28.40;91.40
23305;DHT22;11821;51.456;8.844;2023-07-13T10:43:19;28.20;91.00
23305;DHT22;11821;51.456;8.844;2023-07-13T10:45:47;28.20;91.20
23305;DHT22;11821;51.456;8.844;2023-07-13T10:48:17;28.10;91.20
23305;DHT22;11821;51.456;8.844;2023-07-13T10:50:46;27.90;91.40
23305;DHT22;11821;51.456;8.844;2023-07-13T10:58:18;27.50;91.60
23305;DHT22;11821;51.456;8.844;2023-07-13T11:03:27;27.50;91.60
23305;DHT22;11821;51.456;8.844;2023-07-13T11:18:51;27.50;92.00
23305;DHT22;11821;51.456;8.844;2023-07-13T11:21:25;27.60;92.30
23305;DHT22;11821;51.456;8.844;2023-07-13T11:23:54;27.60;92.20
23305;DHT22;11821;51.456;8.844;2023-07-13T11:26:44;27.70;92.10
23305;DHT22;11821;51.456;8.844;2023-07-13T11:31:53;28.30;91.80
23305;DHT22;11821;51.456;8.844;2023-07-13T11:34:30;28.20;91.40
23305;DHT22;11821;51.456;8.844;2023-07-13T11:36:59;28.30;91.60
23305;DHT22;11821;51.456;8.844;2023-07-13T11:39:34;28.10;91.50
23305;DHT22;11821;51.456;8.844;2023-07-13T11:42:03;28.10;91.30
23305;DHT22;11821;51.456;8.844;2023-07-13T11:44:32;28.60;92.20
23305;DHT22;11821;51.456;8.844;2023-07-13T11:47:08;28.30;88.70
23305;DHT22;11821;51.456;8.844;2023-07-13T11:49:42;28.20;90.80
23305;DHT22;11821;51.456;8.844;2023-07-13T11:52:16;28.40;90.60
23305;DHT22;11821;51.456;8.844;2023-07-13T11:54:51;28.50;90.20
23305;DHT22;11821;51.456;8.844;2023-07-13T12:00:12;28.30;90.30
23305;DHT22;11821;51.456;8.844;2023-07-13T12:02:44;28.20;89.50
23305;DHT22;11821;51.456;8.844;2023-07-13T12:05:13;28.00;89.80
23305;DHT22;11821;51.456;8.844;2023-07-13T12:07:40;28.00;90.60
23305;DHT22;11821;51.456;8.844;2023-07-13T12:10:27;28.10;90.10
23305;DHT22;11821;51.456;8.844;2023-07-13T12:12:59;28.60;90.10
23305;DHT22;11821;51.456;8.844;2023-07-13T12:15:44;28.60;89.20
23305;DHT22;11821;51.456;8.844;2023-07-13T12:18:22;28.50;89.10
23305;DHT22;11821;51.456;8.844;2023-07-13T12:20:50;28.20;90.20
23305;DHT22;11821;51.456;8.844;2023-07-13T12:25:54;27.90;90.30
23305;DHT22;11821;51.456;8.844;2023-07-13T12:28:32;27.70;90.10
23305;DHT22;11821;51.456;8.844;2023-07-13T12:31:04;27.60;90.30
23305;DHT22;11821;51.456;8.844;2023-07-13T12:33:31;27.70;90.70
23305;DHT22;11821;51.456;8.844;2023-07-13T12:36:01;27.90;90.40
23305;DHT22;11821;51.456;8.844;2023-07-13T12:38:29;28.00;90.30
23305;DHT22;11821;51.456;8.844;2023-07-13T12:40:56;27.90;90.10
23305;DHT22;11821;51.456;8.844;2023-07-13T12:43:24;27.80;91.00
23305;DHT22;11821;51.456;8.844;2023-07-13T12:46:03;27.60;90.40
23305;DHT22;11821;51.456;8.844;2023-07-13T12:48:37;27.60;90.60
23305;DHT22;11821;51.456;8.844;2023-07-13T12:51:04;27.60;90.80
23305;DHT22;11821;51.456;8.844;2023-07-13T12:53:40;27.50;90.60
23305;DHT22;11821;51.456;8.844;2023-07-13T12:56:27;27.70;90.80
23305;DHT22;11821;51.456;8.844;2023-07-13T12:58:58;28.00;90.50
23305;DHT22;11821;51.456;8.844;2023-07-13T13:01:28;28.10;91.20
23305;DHT22;11821;51.456;8.844;2023-07-13T13:03:55;28.10;90.40
23305;DHT22;11821;51.456;8.844;2023-07-13T13:06:27;28.40;90.00
23305;DHT22;11821;51.456;8.844;2023-07-13T13:08:56;28.20;90.00
23305;DHT22;11821;51.456;8.844;2023-07-13T13:11:25;28.10;90.40
23305;DHT22;11821;51.456;8.844;2023-07-13T13:13:52;27.90;90.60
23305;DHT22;11821;51.456;8.844;2023-07-13T13:16:20;27.70;90.20
23305;DHT22;11821;51.456;8.844;2023-07-13T13:18:48;27.80;90.80
23305;DHT22;11821;51.456;8.844;2023-07-13T13:21:16;27.70;90.10
23305;DHT22;11821;51.456;8.844;2023-07-13T13:23:43;27.80;90.20
23305;DHT22;11821;51.456;8.844;2023-07-13T13:26:14;27.90;90.10
23305;DHT22;11821;51.456;8.844;2023-07-13T13:28:44;28.00;91.10
23305;DHT22;11821;51.456;8.844;2023-07-13T13:31:12;27.70;89.30
23305;DHT22;11821;51.456;8.844;2023-07-13T13:33:40;28.10;90.00
23305;DHT22;11821;51.456;8.844;2023-07-13T13:36:16;28.10;88.60
23305;DHT22;11821;51.456;8.844;2023-07-13T13:38:43;28.20;88.60
23305;DHT22;11821;51.456;8.844;2023-07-13T13:41:10;28.30;89.00
23305;DHT22;11821;51.456;8.844;2023-07-13T13:43:37;28.20;87.60
23305;DHT22;11821;51.456;8.844;2023-07-13T13:46:19;28.10;88.10
23305;DHT22;11821;51.456;8.844;2023-07-13T13:48:47;27.80;88.20
23305;DHT22;11821;51.456;8.844;2023-07-13T13:51:19;28.00;89.40
23305;DHT22;11821;51.456;8.844;2023-07-13T13:53:47;28.20;88.40
23305;DHT22;11821;51.456;8.844;2023-07-13T13:56:18;28.50;88.20
23305;DHT22;11821;51.456;8.844;2023-07-13T13:58:44;28.70;86.10
23305;DHT22;11821;51.456;8.844;2023-07-13T14:01:20;28.80;87.50
23305;DHT22;11821;51.456;8.844;2023-07-13T14:03:47;28.90;85.00
23305;DHT22;11821;51.456;8.844;2023-07-13T14:06:15;29.20;84.40
23305;DHT22;11821;51.456;8.844;2023-07-13T14:08:42;29.10;85.80
23305;DHT22;11821;51.456;8.844;2023-07-13T14:11:14;29.10;84.60
23305;DHT22;11821;51.456;8.844;2023-07-13T14:13:48;29.40;85.20
23305;DHT22;11821;51.456;8.844;2023-07-13T14:16:17;29.20;85.10
23305;DHT22;11821;51.456;8.844;2023-07-13T14:18:44;29.20;84.80
23305;DHT22;11821;51.456;8.844;2023-07-13T14:21:16;29.30;83.40
23305;DHT22;11821;51.456;8.844;2023-07-13T14:23:44;29.20;81.80
23305;DHT22;11821;51.456;8.844;2023-07-13T14:26:17;29.30;82.30
23305;DHT22;11821;51.456;8.844;2023-07-13T14:28:50;29.10;83.70
23305;DHT22;11821;51.456;8.844;2023-07-13T14:31:17;29.30;82.80
23305;DHT22;11821;51.456;8.844;2023-07-13T14:33:44;29.20;84.60
23305;DHT22;11821;51.456;8.844;2023-07-13T14:36:31;29.10;83.90
23305;DHT22;11821;51.456;8.844;2023-07-13T14:39:01;29.00;85.60
23305;DHT22;11821;51.456;8.844;2023-07-13T14:41:32;29.10;85.00
23305;DHT22;11821;51.456;8.844;2023-07-13T14:43:58;29.30;83.60
23305;DHT22;11821;51.456;8.844;2023-07-13T14:46:29;29.00;83.20
23305;DHT22;11821;51.456;8.844;2023-07-13T14:49:09;29.00;87.10
23305;DHT22;11821;51.456;8.844;2023-07-13T14:51:39;28.90;84.10
23305;DHT22;11821;51.456;8.844;2023-07-13T14:54:07;28.70;84.80
23305;DHT22;11821;51.456;8.844;2023-07-13T14:56:34;28.60;83.90
23305;DHT22;11821;51.456;8.844;2023-07-13T14:59:00;28.30;83.10
23305;DHT22;11821;51.456;8.844;2023-07-13T15:01:27;28.40;84.10
23305;DHT22;11821;51.456;8.844;2023-07-13T15:03:54;28.30;84.50
23305;DHT22;11821;51.456;8.844;2023-07-13T15:06:20;28.60;85.10
23305;DHT22;11821;51.456;8.844;2023-07-13T15:08:47;28.90;84.10
23305;DHT22;11821;51.456;8.844;2023-07-13T15:11:15;29.10;84.90
23305;DHT22;11821;51.456;8.844;2023-07-13T15:13:41;29.30;83.70
23305;DHT22;11821;51.456;8.844;2023-07-13T15:16:20;29.10;83.70
23305;DHT22;11821;51.456;8.844;2023-07-13T15:18:47;29.10;85.00
23305;DHT22;11821;51.456;8.844;2023-07-13T15:21:21;28.90;84.10
23305;DHT22;11821;51.456;8.844;2023-07-13T15:23:50;28.60;85.00
23305;DHT22;11821;51.456;8.844;2023-07-13T15:26:18;28.50;84.80
23305;DHT22;11821;51.456;8.844;2023-07-13T15:28:45;28.20;85.00
23305;DHT22;11821;51.456;8.844;2023-07-13T15:31:23;27.30;90.50
23305;DHT22;11821;51.456;8.844;2023-07-13T15:33:51;26.70;91.50
23305;DHT22;11821;51.456;8.844;2023-07-13T15:36:19;26.20;91.80
23305;DHT22;11821;51.456;8.844;2023-07-13T15:38:47;25.90;92.50
23305;DHT22;11821;51.456;8.844;2023-07-13T15:41:20;25.80;92.50
23305;DHT22;11821;51.456;8.844;2023-07-13T15:43:54;25.80;92.60
23305;DHT22;11821;51.456;8.844;2023-07-13T15:46:22;25.60;92.90
23305;DHT22;11821;51.456;8.844;2023-07-13T15:48:49;25.80;93.40
23305;DHT22;11821;51.456;8.844;2023-07-13T15:51:30;25.60;93.30
23305;DHT22;11821;51.456;8.844;2023-07-13T15:53:59;25.50;93.50
23305;DHT22;11821;51.456;8.844;2023-07-13T15:56:29;25.20;93.80
23305;DHT22;11821;51.456;8.844;2023-07-13T15:58:59;25.00;94.20
23305;DHT22;11821;51.456;8.844;2023-07-13T16:01:26;25.00;94.30
23305;DHT22;11821;51.456;8.844;2023-07-13T16:03:53;24.90;94.80
23305;DHT22;11821;51.456;8.844;2023-07-13T16:08:49;24.90;95.10
23305;DHT22;11821;51.456;8.844;2023-07-13T16:11:24;25.30;95.10
23305;DHT22;11821;51.456;8.844;2023-07-13T16:13:51;25.40;94.80
23305;DHT22;11821;51.456;8.844;2023-07-13T16:16:27;25.30;95.30
23305;DHT22;11821;51.456;8.844;2023-07-13T16:18:56;25.30;95.20
23305;DHT22;11821;51.456;8.844;2023-07-13T16:21:27;25.50;94.90
23305;DHT22;11821;51.456;8.844;2023-07-13T16:23:55;25.40;95.30
23305;DHT22;11821;51.456;8.844;2023-07-13T16:26:49;25.40;95.20
23305;DHT22;11821;51.456;8.844;2023-07-13T16:34:30;25.10;95.90
23305;DHT22;11821;51.456;8.844;2023-07-13T16:36:56;25.10;95.90
23305;DHT22;11821;51.456;8.844;2023-07-13T16:39:23;24.90;96.70
23305;DHT22;11821;51.456;8.844;2023-07-13T16:41:55;24.70;96.70
23305;DHT22;11821;51.456;8.844;2023-07-13T16:44:22;24.70;96.70
23305;DHT22;11821;51.456;8.844;2023-07-13T16:46:51;24.80;96.60
23305;DHT22;11821;51.456;8.844;2023-07-13T16:49:27;24.30;96.70
23305;DHT22;11821;51.456;8.844;2023-07-13T16:51:55;24.30;96.80
23305;DHT22;11821;51.456;8.844;2023-07-13T16:54:29;24.30;96.80
23305;DHT22;11821;51.456;8.844;2023-07-13T16:56:58;24.00;97.30
23305;DHT22;11821;51.456;8.844;2023-07-13T16:59:31;23.90;98.20
23305;DHT22;11821;51.456;8.844;2023-07-13T17:02:02;23.70;99.80
23305;DHT22;11821;51.456;8.844;2023-07-13T17:04:30;23.60;99.90
23305;DHT22;11821;51.456;8.844;2023-07-13T17:06:57;23.50;99.90
23305;DHT22;11821;51.456;8.844;2023-07-13T17:09:24;23.30;99.90
23305;DHT22;11821;51.456;8.844;2023-07-13T17:11:51;23.20;99.90
23305;DHT22;11821;51.456;8.844;2023-07-13T17:14:22;22.80;99.90
23305;DHT22;11821;51.456;8.844;2023-07-13T17:16:55;22.80;99.90
23305;DHT22;11821;51.456;8.844;2023-07-13T17:19:28;22.60;99.90
23305;DHT22;11821;51.456;8.844;2023-07-13T17:21:55;22.40;99.90
23305;DHT22;11821;51.456;8.844;2023-07-13T17:24:27;22.30;99.90
23305;DHT22;11821;51.456;8.844;2023-07-13T17:26:54;22.20;99.90
23305;DHT22;11821;51.456;8.844;2023-07-13T17:29:21;22.00;99.90
23305;DHT22;11821;51.456;8.844;2023-07-13T17:31:48;21.80;99.90